Time;durP1;ratioP1;P1;durP2;ratioP2;P2;SDS_P1;SDS_P2;PMS_P1;PMS_P2;Temp;Humidity;BMP_temperature;BMP_pressure;BME280_temperature;BME280_humidity;BME280_pressure;Samples;Min_cycle;Max_cycle;Signal;HPM_P1;HPM_P2
2022/08/31 00:04:26;;;;;;;4.20;3.03;;;17.90;99.90;;;;;;5049930;28;20538;-50
2022/08/31 00:06:53;;;;;;;3.80;3.23;;;17.80;99.90;;;;;;5051739;28;20438;-50
2022/08/31 00:09:20;;;;;;;4.00;3.23;;;18.00;99.90;;;;;;5051223;28;20503;-50
2022/08/31 00:11:48;;;;;;;4.20;2.80;;;18.10;99.90;;;;;;5051482;28;20519;-50
2022/08/31 00:14:16;;;;;;;3.33;2.83;;;17.90;99.90;;;;;;5051711;28;20441;-50
2022/08/31 00:16:45;;;;;;;3.03;2.73;;;18.00;99.90;;;;;;5051634;28;20712;-51
2022/08/31 00:19:12;;;;;;;3.72;2.75;;;18.10;99.90;;;;;;5051170;28;20544;-50
2022/08/31 00:21:40;;;;;;;4.20;2.77;;;17.70;99.90;;;;;;5051262;28;20250;-50
2022/08/31 00:24:07;;;;;;;2.97;2.60;;;18.00;99.90;;;;;;5051924;28;20489;-50
2022/08/31 00:26:34;;;;;;;3.73;3.30;;;18.10;99.90;;;;;;5051267;28;20518;-50
2022/08/31 00:29:01;;;;;;;4.60;3.40;;;18.20;99.90;;;;;;5050241;28;20472;-51
2022/08/31 00:31:30;;;;;;;3.37;2.77;;;18.10;99.90;;;;;;5050872;28;20465;-50
2022/08/31 00:33:57;;;;;;;3.10;2.80;;;18.10;99.90;;;;;;5051402;28;20480;-51
2022/08/31 00:36:26;;;;;;;4.23;2.80;;;18.00;99.90;;;;;;5051063;28;20452;-50
2022/08/31 00:38:53;;;;;;;3.63;3.10;;;17.90;99.90;;;;;;5050989;28;20659;-50
2022/08/31 00:41:24;;;;;;;3.90;3.60;;;17.50;99.90;;;;;;5050834;28;20474;-51
2022/08/31 00:43:54;;;;;;;3.00;2.50;;;17.80;99.90;;;;;;5050732;28;20550;-50
2022/08/31 00:46:24;;;;;;;6.00;3.27;;;17.60;99.90;;;;;;5050879;28;20449;-50
2022/08/31 00:48:59;;;;;;;3.33;2.83;;;17.50;99.90;;;;;;5050182;28;20893;-50
2022/08/31 00:51:28;;;;;;;3.73;3.43;;;16.90;99.90;;;;;;5050697;28;20468;-50
2022/08/31 00:53:55;;;;;;;4.30;3.90;;;16.90;99.90;;;;;;5050670;28;20488;-51
2022/08/31 00:56:23;;;;;;;4.03;3.60;;;17.00;99.90;;;;;;5050785;28;20441;-49
2022/08/31 00:58:51;;;;;;;3.90;3.13;;;16.90;99.90;;;;;;5050063;28;20457;-50
2022/08/31 01:01:19;;;;;;;4.37;2.83;;;17.20;99.90;;;;;;5050561;28;20464;-50
2022/08/31 01:03:47;;;;;;;3.60;3.27;;;17.50;99.90;;;;;;5048740;28;20473;-49
2022/08/31 01:06:16;;;;;;;4.17;3.57;;;17.30;99.90;;;;;;5050575;28;20453;-50
2022/08/31 01:08:44;;;;;;;4.50;3.13;;;17.10;99.90;;;;;;5049891;28;20552;-50
2022/08/31 01:11:11;;;;;;;4.07;3.03;;;17.30;99.90;;;;;;5049966;28;20546;-51
2022/08/31 01:13:38;;;;;;;5.40;2.72;;;17.20;99.90;;;;;;5050444;28;20444;-49
2022/08/31 01:16:09;;;;;;;3.50;2.97;;;17.30;99.90;;;;;;5050406;28;20233;-52
2022/08/31 01:18:38;;;;;;;4.63;3.60;;;17.50;99.90;;;;;;5050233;28;20445;-50
2022/08/31 01:21:19;;;;;;;4.20;3.27;;;17.50;99.90;;;;;;5049805;28;20230;-50
2022/08/31 01:23:48;;;;;;;5.27;3.30;;;17.70;99.90;;;;;;5050272;28;20626;-50
2022/08/31 01:26:17;;;;;;;3.33;2.67;;;17.80;99.90;;;;;;5050304;28;20483;-50
2022/08/31 01:28:45;;;;;;;5.20;2.87;;;17.70;99.90;;;;;;5049762;28;20226;-50
2022/08/31 01:31:21;;;;;;;2.90;2.40;;;17.40;99.90;;;;;;5049226;28;20519;-50
2022/08/31 01:33:49;;;;;;;3.83;2.87;;;17.20;99.90;;;;;;5050120;28;20445;-50
2022/08/31 01:36:17;;;;;;;4.13;3.00;;;17.10;99.90;;;;;;5050172;28;20454;-50
2022/08/31 01:38:44;;;;;;;4.25;3.10;;;17.10;99.90;;;;;;5049571;28;20261;-50
2022/08/31 01:41:13;;;;;;;10.43;2.70;;;17.40;99.90;;;;;;5049510;28;20646;-50
2022/08/31 01:43:40;;;;;;;4.17;3.10;;;17.40;99.90;;;;;;5049788;28;20471;-48
2022/08/31 01:46:10;;;;;;;2.97;2.67;;;17.50;99.90;;;;;;5049973;28;20507;-48
2022/08/31 01:48:37;;;;;;;4.10;3.00;;;17.50;99.90;;;;;;5050050;28;20453;-48
2022/08/31 01:51:05;;;;;;;3.23;2.60;;;17.50;99.90;;;;;;5049491;28;20461;-48
2022/08/31 01:53:33;;;;;;;5.20;3.07;;;17.40;99.90;;;;;;5050333;28;20445;-47
2022/08/31 01:56:00;;;;;;;4.00;3.20;;;17.50;99.90;;;;;;5049699;28;20430;-48
2022/08/31 01:58:28;;;;;;;3.77;3.33;;;17.80;99.90;;;;;;5049765;28;20453;-49
2022/08/31 02:00:56;;;;;;;4.70;3.10;;;18.00;99.90;;;;;;5048906;28;20454;-48
2022/08/31 02:03:23;;;;;;;3.95;2.60;;;18.00;99.90;;;;;;5047982;28;20472;-48
2022/08/31 02:05:50;;;;;;;4.30;2.67;;;18.00;99.90;;;;;;5049876;28;20195;-48
2022/08/31 02:08:17;;;;;;;3.17;2.80;;;18.00;99.90;;;;;;5049654;28;20452;-49
2022/08/31 02:10:45;;;;;;;3.13;2.50;;;17.80;99.90;;;;;;5048885;28;20523;-48
2022/08/31 02:13:12;;;;;;;3.13;2.60;;;17.90;99.90;;;;;;5049583;28;20276;-48
2022/08/31 02:15:41;;;;;;;3.13;2.70;;;17.40;99.90;;;;;;5049926;28;20640;-47
2022/08/31 02:18:08;;;;;;;6.03;2.57;;;17.30;99.90;;;;;;5049541;28;20437;-48
2022/08/31 02:20:36;;;;;;;3.80;3.17;;;17.40;99.90;;;;;;5048522;28;20473;-48
2022/08/31 02:23:03;;;;;;;2.97;2.67;;;17.70;99.90;;;;;;5051005;28;20450;-49
2022/08/31 02:25:30;;;;;;;4.47;3.33;;;17.80;99.90;;;;;;5053336;28;20479;-49
2022/08/31 02:27:57;;;;;;;3.30;2.87;;;17.80;99.90;;;;;;5053673;28;20677;-48
2022/08/31 02:30:24;;;;;;;3.27;2.73;;;17.90;99.90;;;;;;5052230;28;20464;-48
2022/08/31 02:32:53;;;;;;;3.23;2.50;;;17.90;99.90;;;;;;5053426;28;20441;-48
2022/08/31 02:35:20;;;;;;;3.40;2.90;;;17.20;99.90;;;;;;5053159;28;20444;-48
2022/08/31 02:37:47;;;;;;;4.13;3.03;;;17.40;99.90;;;;;;5053570;28;20457;-48
2022/08/31 02:40:14;;;;;;;4.87;2.87;;;17.50;99.90;;;;;;5052588;28;20541;-48
2022/08/31 02:42:42;;;;;;;3.87;3.20;;;17.60;99.90;;;;;;5053343;28;20441;-48
2022/08/31 02:45:10;;;;;;;4.50;2.97;;;17.60;99.90;;;;;;5053400;28;20518;-48
2022/08/31 02:47:37;;;;;;;3.50;2.40;;;17.60;99.90;;;;;;5053198;28;20510;-50
2022/08/31 02:50:07;;;;;;;3.00;2.70;;;17.70;99.90;;;;;;5052605;28;20453;-48
2022/08/31 02:52:34;;;;;;;4.30;3.27;;;17.80;99.90;;;;;;5052907;28;20441;-48
2022/08/31 02:55:01;;;;;;;4.23;3.10;;;17.50;99.90;;;;;;5053178;28;20469;-50
2022/08/31 02:57:28;;;;;;;4.20;2.93;;;17.20;99.90;;;;;;5052945;28;20793;-47
2022/08/31 02:59:55;;;;;;;4.93;3.40;;;17.00;99.90;;;;;;5052192;28;20498;-48
2022/08/31 03:02:23;;;;;;;3.63;2.83;;;17.00;99.90;;;;;;5052860;28;20495;-48
2022/08/31 03:04:50;;;;;;;3.87;2.93;;;17.40;99.90;;;;;;5051383;28;20602;-48
2022/08/31 03:07:18;;;;;;;3.90;2.80;;;17.60;99.90;;;;;;5052799;28;20431;-47
2022/08/31 03:09:45;;;;;;;5.33;3.13;;;17.70;99.90;;;;;;5052065;28;20449;-48
2022/08/31 03:12:12;;;;;;;3.13;2.67;;;17.80;99.90;;;;;;5052560;28;20433;-48
2022/08/31 03:14:39;;;;;;;2.87;2.03;;;17.70;99.90;;;;;;5052646;28;20434;-47
2022/08/31 03:17:06;;;;;;;3.00;2.20;;;17.40;99.90;;;;;;5052500;28;20939;-48
2022/08/31 03:19:34;;;;;;;2.40;2.13;;;17.40;99.90;;;;;;5051938;28;20441;-47
2022/08/31 03:22:01;;;;;;;3.10;2.80;;;17.60;99.90;;;;;;5052154;28;20461;-49
2022/08/31 03:24:30;;;;;;;4.70;2.63;;;17.80;99.90;;;;;;5052332;28;20480;-48
2022/08/31 03:26:57;;;;;;;5.33;3.00;;;17.90;99.90;;;;;;5052338;28;20910;-48
2022/08/31 03:29:24;;;;;;;8.20;3.10;;;17.70;99.90;;;;;;5050939;28;20506;-47
2022/08/31 03:31:51;;;;;;;4.67;3.40;;;17.40;99.90;;;;;;5052172;28;21039;-48
2022/08/31 03:34:18;;;;;;;3.70;2.80;;;17.20;99.90;;;;;;5051791;28;20450;-49
2022/08/31 03:36:45;;;;;;;4.70;2.80;;;17.40;99.90;;;;;;5052240;28;20507;-48
2022/08/31 03:39:12;;;;;;;3.03;2.70;;;17.60;99.90;;;;;;5051526;28;20453;-50
2022/08/31 03:41:40;;;;;;;3.90;2.60;;;17.70;99.90;;;;;;5051980;28;20532;-48
2022/08/31 03:44:07;;;;;;;3.77;2.37;;;17.20;99.90;;;;;;5052101;28;20472;-49
2022/08/31 03:46:35;;;;;;;3.80;2.43;;;17.00;99.90;;;;;;5052277;28;20534;-48
2022/08/31 03:49:03;;;;;;;2.67;2.30;;;16.90;99.90;;;;;;5051365;28;20453;-48
2022/08/31 03:51:30;;;;;;;2.90;2.50;;;17.20;99.90;;;;;;5051817;28;20465;-48
2022/08/31 03:53:57;;;;;;;3.27;2.40;;;17.50;99.90;;;;;;5051896;28;20464;-49
2022/08/31 03:56:25;;;;;;;2.90;2.33;;;17.60;99.90;;;;;;5051934;28;20449;-48
2022/08/31 03:58:54;;;;;;;2.80;2.23;;;17.40;99.90;;;;;;5051246;28;20433;-48
2022/08/31 04:01:21;;;;;;;2.63;2.43;;;17.20;99.90;;;;;;5051695;28;20471;-49
2022/08/31 04:03:48;;;;;;;2.83;2.50;;;17.50;99.90;;;;;;5049952;28;20495;-49
2022/08/31 04:06:15;;;;;;;3.70;3.03;;;17.30;99.90;;;;;;5051681;28;20475;-47
2022/08/31 04:08:42;;;;;;;3.10;2.80;;;17.10;99.90;;;;;;5050921;28;20864;-48
2022/08/31 04:11:11;;;;;;;2.77;2.13;;;17.50;99.90;;;;;;5051176;28;20445;-48
2022/08/31 04:13:39;;;;;;;4.10;2.50;;;17.60;99.90;;;;;;5051602;28;20449;-48
2022/08/31 04:16:08;;;;;;;4.03;2.67;;;17.60;99.90;;;;;;5051538;28;20523;-48
2022/08/31 04:18:35;;;;;;;3.23;1.97;;;17.50;99.90;;;;;;5051346;28;20794;-48
2022/08/31 04:21:04;;;;;;;3.83;2.60;;;17.30;99.90;;;;;;5052147;28;20528;-49
2022/08/31 04:23:31;;;;;;;3.17;2.40;;;17.50;99.90;;;;;;5051828;28;20456;-49
2022/08/31 04:25:58;;;;;;;3.30;2.40;;;17.60;99.90;;;;;;5051060;28;20469;-48
2022/08/31 04:28:25;;;;;;;3.50;1.87;;;17.60;99.90;;;;;;5051348;28;20446;-48
2022/08/31 04:30:52;;;;;;;2.53;2.07;;;17.30;99.90;;;;;;5049867;28;20525;-48
2022/08/31 04:33:21;;;;;;;3.27;2.40;;;17.60;99.90;;;;;;5051653;28;20452;-50
2022/08/31 04:35:48;;;;;;;4.10;3.00;;;17.70;99.90;;;;;;5051122;28;20461;-49
2022/08/31 04:38:15;;;;;;;5.10;2.93;;;17.20;99.90;;;;;;5051032;28;20512;-48
2022/08/31 04:40:42;;;;;;;3.33;2.60;;;16.90;99.90;;;;;;5050602;28;20461;-50
2022/08/31 04:43:09;;;;;;;3.53;2.70;;;17.20;99.90;;;;;;5051058;28;20446;-48
2022/08/31 04:45:41;;;;;;;3.80;2.50;;;17.20;99.90;;;;;;5049847;28;20465;-48
2022/08/31 04:48:08;;;;;;;2.90;2.20;;;17.40;99.90;;;;;;5051038;28;20446;-48
2022/08/31 04:50:36;;;;;;;4.10;2.53;;;17.50;99.90;;;;;;5049963;28;21008;-48
2022/08/31 04:53:04;;;;;;;5.00;2.35;;;17.70;99.90;;;;;;5050862;28;20507;-48
2022/08/31 04:55:31;;;;;;;3.43;2.47;;;17.60;99.90;;;;;;5050833;28;20241;-50
2022/08/31 04:57:58;;;;;;;3.30;2.10;;;17.60;99.90;;;;;;5050709;28;20447;-49
2022/08/31 05:00:26;;;;;;;3.07;2.30;;;17.50;99.90;;;;;;5049711;28;20870;-49
2022/08/31 05:02:53;;;;;;;3.38;2.22;;;17.30;99.90;;;;;;5049055;28;20499;-51
2022/08/31 05:05:20;;;;;;;2.70;1.90;;;17.10;99.90;;;;;;5050647;28;20479;-49
2022/08/31 05:07:49;;;;;;;4.37;2.90;;;16.90;99.90;;;;;;5050477;28;20437;-52
2022/08/31 05:10:16;;;;;;;3.40;3.10;;;17.10;99.90;;;;;;5049854;28;21044;-50
2022/08/31 05:12:44;;;;;;;3.53;3.00;;;17.30;99.90;;;;;;5050537;28;20618;-51
2022/08/31 05:15:11;;;;;;;4.17;3.30;;;17.40;99.90;;;;;;5050310;28;20479;-50
2022/08/31 05:17:38;;;;;;;4.50;3.07;;;17.40;99.90;;;;;;5050624;28;20503;-51
2022/08/31 05:20:06;;;;;;;3.70;3.40;;;17.50;99.90;;;;;;5049509;28;20466;-51
2022/08/31 05:22:33;;;;;;;3.93;3.50;;;17.60;99.90;;;;;;5050526;28;20445;-51
2022/08/31 05:25:04;;;;;;;3.90;3.50;;;17.10;99.90;;;;;;5050494;28;20498;-50
2022/08/31 05:27:31;;;;;;;4.27;3.40;;;16.80;99.90;;;;;;5050319;28;20494;-52
2022/08/31 05:29:58;;;;;;;3.63;3.17;;;16.90;99.90;;;;;;5047936;28;20453;-50
2022/08/31 05:32:25;;;;;;;3.60;3.30;;;16.90;99.90;;;;;;5050316;28;20503;-50
2022/08/31 05:34:52;;;;;;;5.60;3.43;;;17.00;99.90;;;;;;5050241;28;21023;-50
2022/08/31 05:37:19;;;;;;;4.33;3.63;;;17.10;99.90;;;;;;5050099;28;20704;-50
2022/08/31 05:39:46;;;;;;;4.00;3.40;;;17.20;99.90;;;;;;5049249;28;20481;-50
2022/08/31 05:42:14;;;;;;;3.93;3.47;;;17.30;99.90;;;;;;5049893;28;20812;-51
2022/08/31 05:44:41;;;;;;;5.23;3.30;;;17.50;99.90;;;;;;5049875;28;20461;-51
2022/08/31 05:47:09;;;;;;;4.15;3.47;;;17.60;99.90;;;;;;5050235;28;20485;-50
2022/08/31 05:49:36;;;;;;;3.70;3.03;;;17.60;99.90;;;;;;5049558;28;20203;-50
2022/08/31 05:52:05;;;;;;;4.32;3.35;;;17.70;99.90;;;;;;5051094;28;20519;-50
2022/08/31 05:54:34;;;;;;;3.47;2.83;;;17.70;99.90;;;;;;5050578;28;20202;-48
2022/08/31 05:57:01;;;;;;;3.17;2.80;;;17.70;99.90;;;;;;5049659;28;20512;-47
2022/08/31 05:59:30;;;;;;;3.27;2.97;;;17.60;99.90;;;;;;5049282;28;20484;-49
2022/08/31 06:01:57;;;;;;;4.33;3.70;;;17.70;99.90;;;;;;5049669;28;20896;-50
2022/08/31 06:04:25;;;;;;;4.00;3.28;;;17.70;99.90;;;;;;5048114;28;20954;-49
2022/08/31 06:06:52;;;;;;;3.80;3.40;;;17.80;99.90;;;;;;5049659;28;20207;-49
2022/08/31 06:09:19;;;;;;;6.70;3.90;;;17.80;99.90;;;;;;5049062;28;20528;-49
2022/08/31 06:11:47;;;;;;;5.40;3.43;;;17.90;99.90;;;;;;5049384;28;20449;-49
2022/08/31 06:14:14;;;;;;;3.80;3.10;;;18.00;99.90;;;;;;5049679;28;20473;-49
2022/08/31 06:16:43;;;;;;;3.73;3.30;;;17.90;99.90;;;;;;5049809;28;20437;-49
2022/08/31 06:19:11;;;;;;;6.10;4.10;;;17.80;99.90;;;;;;5048893;28;20485;-49
2022/08/31 06:21:41;;;;;;;4.20;3.67;;;17.70;99.90;;;;;;5049434;28;20885;-51
2022/08/31 06:24:10;;;;;;;4.97;3.87;;;17.30;99.90;;;;;;5049602;28;20943;-49
2022/08/31 06:26:38;;;;;;;5.33;3.53;;;17.40;99.90;;;;;;5049545;28;20560;-49
2022/08/31 06:29:08;;;;;;;3.60;3.17;;;17.40;99.90;;;;;;5048565;28;20457;-49
2022/08/31 06:31:37;;;;;;;4.00;3.10;;;17.50;99.90;;;;;;5049406;28;20321;-50
2022/08/31 06:34:07;;;;;;;4.93;3.67;;;17.50;99.90;;;;;;5049651;28;20479;-50
2022/08/31 06:36:34;;;;;;;5.30;4.10;;;17.20;99.90;;;;;;5049481;28;20524;-50
2022/08/31 06:39:02;;;;;;;10.33;5.93;;;17.10;99.90;;;;;;5048889;28;20889;-51
2022/08/31 06:41:30;;;;;;;5.50;3.80;;;17.00;99.90;;;;;;5049133;28;21040;-50
2022/08/31 06:43:58;;;;;;;3.70;3.20;;;17.10;99.90;;;;;;5049567;28;21113;-50
2022/08/31 06:46:26;;;;;;;4.43;4.03;;;17.10;99.90;;;;;;5049664;28;20473;-52
2022/08/31 06:48:54;;;;;;;6.65;4.18;;;17.00;99.90;;;;;;5048594;28;20463;-51
2022/08/31 06:51:23;;;;;;;4.60;4.20;;;17.10;99.90;;;;;;5049227;28;20599;-49
2022/08/31 06:53:50;;;;;;;5.00;4.50;;;17.00;99.90;;;;;;5049454;28;20849;-49
2022/08/31 06:56:20;;;;;;;5.50;4.93;;;17.00;99.90;;;;;;5049266;28;21064;-50
2022/08/31 06:58:47;;;;;;;4.15;3.75;;;16.90;99.90;;;;;;5048632;28;20449;-48
2022/08/31 07:01:16;;;;;;;5.20;3.33;;;17.20;99.90;;;;;;5049302;28;20222;-50
2022/08/31 07:03:44;;;;;;;4.63;4.15;;;17.10;99.90;;;;;;5047991;28;20487;-50
2022/08/31 07:06:16;;;;;;;6.17;4.23;;;17.00;99.90;;;;;;5048984;28;20219;-49
2022/08/31 07:08:45;;;;;;;5.13;4.23;;;17.00;99.90;;;;;;5049493;28;20480;-51
2022/08/31 07:11:14;;;;;;;5.80;4.85;;;16.90;99.90;;;;;;5052697;28;20515;-49
2022/08/31 07:13:42;;;;;;;5.93;4.70;;;16.90;99.90;;;;;;5052629;28;20749;-50
2022/08/31 07:16:12;;;;;;;5.17;4.47;;;16.90;99.90;;;;;;5052597;28;20930;-50
2022/08/31 07:18:40;;;;;;;4.53;4.10;;;17.00;99.90;;;;;;5052208;28;20429;-50
2022/08/31 07:21:09;;;;;;;4.70;4.10;;;17.20;99.90;;;;;;5052066;28;20481;-50
2022/08/31 07:23:37;;;;;;;7.17;4.60;;;17.20;99.90;;;;;;5052598;28;20434;-50
2022/08/31 07:26:07;;;;;;;5.93;4.47;;;17.20;99.90;;;;;;5052385;28;20468;-51
2022/08/31 07:28:34;;;;;;;5.93;4.30;;;17.20;99.90;;;;;;5052622;28;20567;-51
2022/08/31 07:31:04;;;;;;;5.38;3.95;;;17.10;99.90;;;;;;5051233;28;20446;-50
2022/08/31 07:33:37;;;;;;;9.33;4.80;;;17.10;99.90;;;;;;5052264;28;20202;-51
2022/08/31 07:36:06;;;;;;;5.17;4.53;;;17.40;99.90;;;;;;5052389;28;20453;-50
2022/08/31 07:44:04;;;;;;;4.80;4.17;;;17.40;99.90;;;;;;5052320;28;20512;-51
2022/08/31 07:46:31;;;;;;;4.30;3.90;;;17.60;99.90;;;;;;5052085;28;20507;-50
2022/08/31 07:48:58;;;;;;;6.18;5.07;;;17.60;99.90;;;;;;5051438;28;20493;-50
2022/08/31 07:51:25;;;;;;;4.00;3.60;;;17.90;99.90;;;;;;5051873;28;20474;-49
2022/08/31 07:53:53;;;;;;;4.50;3.73;;;18.00;99.90;;;;;;5052117;28;20507;-50
2022/08/31 07:56:24;;;;;;;6.38;5.10;;;18.00;99.90;;;;;;5051735;28;20861;-49
2022/08/31 07:58:51;;;;;;;6.30;4.40;;;18.00;99.90;;;;;;5051194;28;20305;-50
2022/08/31 08:01:19;;;;;;;4.87;3.80;;;18.10;99.90;;;;;;5051531;28;20265;-50
2022/08/31 08:03:46;;;;;;;5.70;4.10;;;18.10;99.90;;;;;;5050819;28;20527;-50
2022/08/31 08:06:14;;;;;;;4.37;3.90;;;18.10;99.90;;;;;;5051703;28;20219;-52
2022/08/31 08:08:42;;;;;;;5.60;4.40;;;18.20;99.90;;;;;;5051196;28;20976;-53
2022/08/31 08:11:14;;;;;;;3.90;3.27;;;18.20;99.90;;;;;;5051215;28;20861;-51
2022/08/31 08:13:43;;;;;;;3.60;3.20;;;18.20;99.90;;;;;;5051627;28;20495;-51
2022/08/31 08:16:10;;;;;;;6.90;3.92;;;18.10;99.90;;;;;;5051639;28;20449;-51
2022/08/31 08:18:37;;;;;;;3.57;3.23;;;18.30;99.90;;;;;;5051385;28;20206;-53
2022/08/31 08:21:05;;;;;;;5.03;3.73;;;18.20;99.90;;;;;;5051176;28;20473;-51
2022/08/31 08:23:32;;;;;;;5.23;3.30;;;18.30;99.90;;;;;;5051376;28;20800;-51
2022/08/31 08:26:00;;;;;;;9.30;2.83;;;18.30;99.90;;;;;;5051306;28;20523;-48
2022/08/31 08:28:29;;;;;;;12.37;5.10;;;17.90;99.90;;;;;;5051108;28;20444;-51
2022/08/31 08:31:00;;;;;;;13.33;4.70;;;17.60;99.90;;;;;;5049309;28;20473;-50
2022/08/31 08:33:28;;;;;;;4.25;3.78;;;17.80;99.90;;;;;;5051481;28;20989;-48
2022/08/31 08:35:56;;;;;;;6.45;3.78;;;18.00;99.90;;;;;;5051505;28;20207;-50
2022/08/31 08:38:24;;;;;;;7.33;3.70;;;18.00;99.90;;;;;;5052475;28;20238;-50
2022/08/31 08:40:52;;;;;;;8.57;4.07;;;18.00;99.90;;;;;;5050609;28;20454;-49
2022/08/31 08:43:23;;;;;;;4.43;3.80;;;18.20;99.90;;;;;;5051267;28;20204;-50
2022/08/31 08:45:54;;;;;;;4.85;3.50;;;18.20;99.90;;;;;;5051091;28;20478;-49
2022/08/31 08:48:27;;;;;;;4.40;3.67;;;18.30;99.90;;;;;;5051114;28;20199;-49
2022/08/31 08:50:54;;;;;;;5.60;4.20;;;18.40;99.90;;;;;;5050521;28;20445;-50
2022/08/31 08:53:26;;;;;;;7.70;4.83;;;18.40;99.90;;;;;;5051063;28;20503;-50
2022/08/31 08:55:53;;;;;;;5.28;4.13;;;18.30;99.90;;;;;;5051045;28;20495;-49
2022/08/31 08:58:20;;;;;;;4.57;3.57;;;18.40;99.90;;;;;;5051527;28;20210;-50
2022/08/31 09:00:51;;;;;;;5.17;4.00;;;18.50;99.90;;;;;;5050345;28;20472;-49
2022/08/31 09:03:32;;;;;;;3.57;3.27;;;18.20;99.90;;;;;;5049841;28;20445;-51
2022/08/31 09:06:05;;;;;;;4.60;3.60;;;18.30;99.90;;;;;;5050577;28;20551;-49
2022/08/31 09:09:11;;;;;;;11.37;4.20;;;18.10;99.90;;;;;;5050813;28;20449;-50
2022/08/31 09:11:48;;;;;;;7.87;3.80;;;18.10;99.90;;;;;;5050416;28;20468;-50
2022/08/31 09:14:27;;;;;;;4.47;3.57;;;18.10;99.90;;;;;;5050769;28;20453;-49
2022/08/31 09:17:01;;;;;;;7.17;3.83;;;17.90;99.90;;;;;;5050430;28;20973;-49
2022/08/31 09:19:57;;;;;;;6.90;3.83;;;18.10;99.90;;;;;;5050248;28;20477;-50
2022/08/31 09:22:19;;;;;;;5.47;4.30;;;18.20;99.90;;;;;;5050094;28;20621;-49
2022/08/31 09:24:50;;;;;;;6.40;4.03;;;18.20;99.90;;;;;;5050566;28;20452;-50
2022/08/31 09:27:36;;;;;;;643.33;61.53;;;18.30;99.90;;;;;;5050263;28;20522;-51
2022/08/31 09:30:05;;;;;;;4.33;3.23;;;18.30;99.90;;;;;;5049384;28;20472;-52
2022/08/31 09:32:34;;;;;;;4.23;2.70;;;18.40;99.90;;;;;;5049707;28;20520;-50
2022/08/31 09:35:04;;;;;;;11.30;4.30;;;18.40;99.90;;;;;;5050171;28;20469;-49
2022/08/31 09:37:39;;;;;;;8.93;4.03;;;18.60;99.90;;;;;;5050397;28;20437;-49
2022/08/31 09:40:15;;;;;;;5.90;3.97;;;18.80;99.90;;;;;;5049131;28;20473;-50
2022/08/31 09:42:44;;;;;;;3.13;2.83;;;18.90;99.90;;;;;;5049678;28;20954;-49
2022/08/31 09:45:28;;;;;;;4.30;3.90;;;19.00;99.90;;;;;;5049817;28;20453;-49
2022/08/31 09:48:00;;;;;;;5.00;4.00;;;19.00;99.90;;;;;;5049834;28;20438;-49
2022/08/31 09:50:40;;;;;;;3.53;3.23;;;19.10;99.90;;;;;;5049189;28;20532;-49
2022/08/31 09:56:15;;;;;;;4.13;3.77;;;19.00;99.90;;;;;;5049745;28;20491;-50
2022/08/31 09:58:46;;;;;;;6.47;4.20;;;19.10;99.90;;;;;;5049387;28;20438;-47
2022/08/31 10:01:18;;;;;;;4.80;3.83;;;19.20;99.90;;;;;;5049621;28;20473;-50
2022/08/31 10:03:46;;;;;;;8.23;3.90;;;19.20;99.90;;;;;;5048866;28;20507;-50
2022/08/31 10:06:46;;;;;;;7.13;5.00;;;19.20;99.90;;;;;;5049668;28;20498;-49
2022/08/31 10:09:20;;;;;;;12.63;5.83;;;19.30;99.90;;;;;;5033460;28;20532;-50
2022/08/31 10:11:50;;;;;;;14.77;5.70;;;19.30;99.90;;;;;;5049613;28;20506;-49
2022/08/31 10:14:27;;;;;;;4.40;4.00;;;19.40;99.90;;;;;;5049690;28;20531;-50
2022/08/31 10:17:01;;;;;;;4.27;3.87;;;19.30;99.90;;;;;;5049565;28;20437;-49
2022/08/31 10:19:41;;;;;;;4.57;3.90;;;19.30;99.90;;;;;;5048890;28;20475;-50
2022/08/31 10:22:21;;;;;;;6.13;4.27;;;19.30;99.90;;;;;;5051014;28;20938;-49
2022/08/31 10:25:03;;;;;;;4.40;4.00;;;19.50;99.90;;;;;;5049738;28;20443;-49
2022/08/31 10:27:39;;;;;;;5.57;4.00;;;19.60;99.90;;;;;;5049315;28;20483;-49
2022/08/31 10:30:11;;;;;;;8.10;6.60;;;19.30;99.90;;;;;;5048213;28;20961;-50
2022/08/31 10:32:45;;;;;;;5.00;4.50;;;19.30;99.90;;;;;;5049534;28;20481;-50
2022/08/31 10:35:21;;;;;;;5.90;5.10;;;19.50;99.90;;;;;;5049465;28;20449;-49
2022/08/31 10:38:06;;;;;;;5.60;4.90;;;19.50;99.90;;;;;;5049345;28;20429;-49
2022/08/31 10:40:41;;;;;;;5.13;4.63;;;19.60;99.90;;;;;;5048721;28;20461;-49
2022/08/31 10:43:16;;;;;;;8.23;5.00;;;19.40;99.90;;;;;;5049810;28;20441;-49
2022/08/31 10:45:47;;;;;;;6.03;5.23;;;19.40;99.90;;;;;;5052911;28;20439;-49
2022/08/31 10:48:16;;;;;;;6.30;5.57;;;19.40;99.90;;;;;;5053341;28;20444;-49
2022/08/31 10:50:50;;;;;;;7.47;6.67;;;19.50;99.90;;;;;;5052309;28;20465;-49
2022/08/31 10:53:32;;;;;;;7.83;7.03;;;19.60;99.90;;;;;;5053227;28;20756;-49
2022/08/31 10:56:13;;;;;;;6.30;5.60;;;19.60;99.90;;;;;;5052931;28;20439;-50
2022/08/31 10:59:00;;;;;;;7.80;5.80;;;19.40;99.90;;;;;;5052558;28;20469;-47
2022/08/31 11:01:38;;;;;;;7.57;6.47;;;19.50;99.90;;;;;;5049423;28;20471;-50
2022/08/31 11:04:34;;;;;;;6.90;6.30;;;19.60;99.90;;;;;;5052169;28;20630;-49
2022/08/31 11:07:11;;;;;;;7.75;6.78;;;19.50;99.90;;;;;;5051369;28;20883;-50
2022/08/31 11:09:46;;;;;;;7.83;5.97;;;19.40;99.90;;;;;;5052212;28;20719;-50
2022/08/31 11:12:20;;;;;;;6.38;5.72;;;19.40;99.90;;;;;;5052706;28;20514;-49
2022/08/31 11:15:19;;;;;;;6.03;5.43;;;19.40;99.90;;;;;;5052865;28;20345;-48
2022/08/31 11:18:08;;;;;;;7.70;6.90;;;19.30;99.90;;;;;;5017424;28;20477;-49
2022/08/31 11:21:04;;;;;;;17.30;7.20;;;19.30;99.90;;;;;;5051556;28;20461;-51
2022/08/31 11:23:55;;;;;;;7.67;6.07;;;19.20;99.90;;;;;;5052946;28;20202;-50
2022/08/31 11:26:51;;;;;;;6.80;6.13;;;19.20;99.90;;;;;;5053679;28;20469;-49
2022/08/31 11:29:33;;;;;;;10.73;6.63;;;19.10;99.90;;;;;;5034494;28;20654;-50
2022/08/31 11:32:11;;;;;;;11.90;7.30;;;19.10;99.90;;;;;;5052430;28;20498;-49
2022/08/31 11:34:49;;;;;;;14.73;7.30;;;19.00;99.90;;;;;;5052445;28;20495;-49
2022/08/31 11:37:51;;;;;;;15.68;7.10;;;19.00;99.90;;;;;;5052421;28;20441;-49
2022/08/31 11:40:51;;;;;;;17.43;7.07;;;19.10;99.90;;;;;;5051566;28;20226;-51
2022/08/31 11:43:51;;;;;;;8.30;6.30;;;19.10;99.90;;;;;;5052370;28;21105;-49
2022/08/31 11:46:59;;;;;;;5.13;4.63;;;18.90;99.90;;;;;;5052089;28;20469;-50
2022/08/31 11:49:48;;;;;;;7.57;6.07;;;19.00;99.90;;;;;;5049906;28;20445;-50
2022/08/31 11:52:30;;;;;;;6.57;5.80;;;18.80;99.90;;;;;;5050992;28;20450;-50
2022/08/31 11:55:24;;;;;;;9.18;6.78;;;18.90;99.90;;;;;;5051950;28;20445;-49
2022/08/31 11:58:18;;;;;;;6.90;5.83;;;18.90;99.90;;;;;;5034237;28;20206;-50
2022/08/31 12:00:52;;;;;;;7.73;5.87;;;18.90;99.90;;;;;;5051119;28;20554;-52
2022/08/31 12:03:37;;;;;;;10.20;8.97;;;19.10;99.90;;;;;;5050935;28;20961;-51
2022/08/31 12:06:04;;;;;;;11.25;7.75;;;19.20;99.90;;;;;;5051743;28;20930;-50
2022/08/31 12:08:46;;;;;;;16.60;6.10;;;19.20;99.90;;;;;;5051809;28;20292;-52
2022/08/31 12:11:22;;;;;;;7.67;6.23;;;19.20;99.90;;;;;;5051262;28;20982;-50
2022/08/31 12:13:54;;;;;;;9.70;6.73;;;19.30;99.90;;;;;;5051565;28;20961;-51
2022/08/31 12:16:53;;;;;;;6.40;5.40;;;19.30;99.90;;;;;;5051603;28;20430;-51
2022/08/31 12:20:03;;;;;;;6.30;5.70;;;19.20;99.90;;;;;;5049925;28;21189;-51
2022/08/31 12:26:03;;;;;;;7.97;6.13;;;19.30;99.90;;;;;;5051824;28;20436;-50
2022/08/31 12:28:37;;;;;;;6.53;5.85;;;19.40;99.90;;;;;;5051463;28;20282;-50
2022/08/31 12:31:09;;;;;;;8.20;6.83;;;19.40;99.90;;;;;;5050338;28;20261;-51
2022/08/31 12:33:55;;;;;;;9.73;7.50;;;19.30;99.90;;;;;;5051277;28;20453;-51
2022/08/31 12:36:28;;;;;;;7.00;6.30;;;19.10;99.90;;;;;;5051175;28;20429;-51
2022/08/31 12:39:07;;;;;;;11.18;8.13;;;19.10;99.90;;;;;;5050623;28;20457;-51
2022/08/31 12:41:37;;;;;;;14.93;8.40;;;19.00;99.90;;;;;;5050999;28;20317;-51
2022/08/31 12:44:04;;;;;;;11.23;8.00;;;19.00;99.90;;;;;;5050788;28;20915;-50
2022/08/31 12:47:01;;;;;;;7.90;7.10;;;19.00;99.90;;;;;;5050823;28;20976;-50
2022/08/31 12:49:40;;;;;;;7.70;6.88;;;18.90;99.90;;;;;;5048612;28;20450;-49
2022/08/31 12:52:19;;;;;;;8.40;7.20;;;18.80;99.90;;;;;;5050651;28;20202;-50
2022/08/31 12:55:07;;;;;;;8.00;7.30;;;18.80;99.90;;;;;;5050784;28;20445;-51
2022/08/31 12:58:02;;;;;;;7.87;7.17;;;18.80;99.90;;;;;;5050691;28;20516;-50
2022/08/31 13:00:32;;;;;;;8.43;7.67;;;18.80;99.90;;;;;;5049862;28;20982;-50
2022/08/31 13:03:01;;;;;;;7.57;6.73;;;18.70;99.90;;;;;;5049561;28;20457;-51
2022/08/31 13:05:31;;;;;;;8.60;7.80;;;18.80;99.90;;;;;;5050796;28;20445;-50
2022/08/31 13:07:59;;;;;;;7.50;6.80;;;18.90;99.90;;;;;;5049925;28;20469;-50
2022/08/31 13:10:30;;;;;;;7.67;6.83;;;19.00;99.90;;;;;;5049819;28;20481;-50
2022/08/31 13:12:59;;;;;;;10.97;9.87;;;19.10;99.90;;;;;;5050317;28;20430;-50
2022/08/31 13:15:28;;;;;;;9.67;7.87;;;19.10;99.90;;;;;;5050314;28;20520;-51
2022/08/31 13:17:56;;;;;;;7.72;7.03;;;19.20;99.90;;;;;;5049192;28;20902;-51
2022/08/31 13:20:42;;;;;;;9.80;7.97;;;19.20;99.90;;;;;;5049335;28;20233;-51
2022/08/31 13:23:13;;;;;;;9.43;7.88;;;19.20;99.90;;;;;;5050152;28;20553;-52